South Pownal, Vermont
Current Conditions -  °F | °C
As of 9:52 AM on Friday 31 Oct 2014 (Local Time) from KAQW Reporting Station
Broken Clouds Broken Clouds  
Wind Chill: 34°   Ceiling: 3700
Heat Index: 34°   Visibility: 10mi
Dew Point: 32°   Wind: 0mph
Humidity: 92%   Direction: NA
Pressure: 30.05"   Gusts: NA
Location:  42.7845°N, 73.2029°W
Report Text: KAQW 311352Z AUTO 00000KT 10SM SCT029 BKN037 01/00 A3005 RMK AO2 SLP181 T00110000
Loading
Personal Weather Stations






























Interactive Weather Map
Tropical Storm Tracking
New forecast layout! Learn more

10-Day Weather Forecast

Advertisements
Track Severe Weather on mobile